KCLT

Charlotte / Douglas International Airport

Charlotte, North Carolina, USA
METAR KCLT 230052Z 22006KT 10SM FEW042 FEW080 SCT120 BKN210 24/20 A3007 RMK AO2 SLP176 T02440200
Observed Flight Rules
May-23 @ 00:52 UTC (31 minutes ago) Visual Flight Rules
Wind Visibility Clouds
220° at 6 knots 10 miles
  • Few at 4,200' AGL
  • Few at 8,000' AGL
  • Scattered at 12,000' AGL
  • Broken at 21,000' AGL
Temperatures Readings
Current 24°C / 75°F
Dewpoint 20°C / 68°F
Humidity 78%
Altimeter 30.07" Hg
Pressure 1017.6 hPa
Elevation 220
METAR KCLT 230052Z 22006KT 10SM FEW042 FEW080 SCT120 BKN210 24/20 A3007 RMK AO2 SLP176 T02440200
Observed Flight Rules
May-23 @ 00:52 UTC
(31 minutes ago)
VFR
Wind Visibility
220° at 6 knots 10 miles
Clouds
  • Few at 4,200' AGL
  • Few at 8,000' AGL
  • Scattered at 12,000' AGL
  • Broken at 21,000' AGL
Temperature Dewpoint
24°C / 75°F 20°C / 68°F
Humidity Altimeter Pressure
78% 30.07" Hg 1017.6 hPa